Site:       
  Group:  
  From:      To:        
   
Sensor Name: Furnace      Latitude:-9.57320000 , Longitude:53.92290000
Please click on the Table Headers to view a Graph of the Observations.
TimeMax. Temp. (°C)Min. Temp. (°C)Mean Temp. (°C)Tot. Rain (mm)Mean Wind (kn)Max Gust (kn)Solar Rad. (J\cm2)Humidity (%)Atmos. Press. (mb)Temp. 5cm (°C)Temp. 10cm (°C)Temp. 20cm (°C)Temp. 30cm (°C)Temp. 50cm (°C)Temp. 100cm (°C)Grass Min. (°C)
14/08/2020 23:00:0017.00 16.40 16.70 0.00 5.60 11.70 0.00 92.90 1013.90 19.90 20.10 20.00 19.30 17.50 15.80 -999.00
14/08/2020 22:00:0017.40 16.90 17.10 0.00 6.40 12.30 0.00 92.80 1013.80 20.40 20.60 20.20 19.30 17.50 15.80 -999.00
14/08/2020 21:00:0018.40 17.40 17.90 0.00 3.50 7.80 0.10 91.10 1013.70 20.90 21.10 20.30 19.30 17.50 15.80 -999.00
14/08/2020 20:00:0019.00 18.40 18.70 0.00 5.70 11.10 11.90 88.50 1013.40 21.50 21.50 20.40 19.20 17.40 15.80 -999.00
14/08/2020 19:00:0021.60 19.00 20.30 0.00 7.00 13.10 51.50 85.30 1013.10 22.10 21.90 20.30 19.10 17.40 15.80 -999.00
14/08/2020 18:00:0022.80 21.40 22.10 0.00 7.40 12.60 55.60 80.90 1012.80 22.50 22.10 20.20 19.00 17.40 15.80 -999.00
14/08/2020 17:00:0023.60 22.80 23.20 0.00 5.00 9.30 66.10 74.20 1012.60 22.70 22.10 19.90 18.80 17.30 15.80 -999.00
14/08/2020 16:00:0023.60 23.20 23.40 0.00 3.70 7.90 106.50 72.90 1012.70 22.70 22.00 19.60 18.60 17.30 15.80 -999.00
14/08/2020 15:00:0023.40 22.50 23.00 0.00 3.00 8.60 155.20 73.70 1012.90 22.30 21.60 19.30 18.40 17.30 15.80 -999.00
14/08/2020 14:00:0022.60 21.80 22.20 0.00 4.90 11.00 157.70 77.40 1013.00 21.90 21.20 19.00 18.20 17.30 15.80 -999.00
14/08/2020 13:00:0021.90 21.10 21.50 0.00 6.40 15.60 122.50 78.70 1013.20 21.50 20.80 18.60 18.10 17.30 15.80 -999.00
14/08/2020 12:00:0022.70 21.40 22.00 0.00 5.50 14.40 207.60 75.20 1013.30 20.90 20.00 18.20 18.00 17.30 15.80 -999.00
14/08/2020 11:00:0022.10 20.20 21.10 0.00 6.00 11.60 233.00 79.60 1013.40 19.70 19.00 17.90 17.90 17.30 15.80 -999.00
14/08/2020 10:00:0020.20 18.40 19.30 0.00 6.90 12.00 190.30 84.60 1013.20 18.60 18.20 17.80 17.90 17.30 15.80 -999.00
14/08/2020 09:00:0018.40 17.20 17.80 0.00 7.10 11.80 111.80 91.60 1013.40 18.00 17.90 17.90 17.90 17.30 15.80 -999.00
14/08/2020 08:00:0017.20 16.80 17.00 0.00 6.60 11.80 50.30 94.60 1013.40 17.70 17.70 17.90 18.00 17.30 15.80 -999.00
14/08/2020 07:00:0017.00 16.60 16.80 0.00 7.00 12.60 25.50 96.20 1013.20 17.60 17.80 18.00 18.00 17.30 15.80 -999.00
14/08/2020 06:00:0016.90 16.50 16.70 0.00 8.80 13.90 3.70 96.50 1012.90 17.70 17.90 18.20 18.10 17.30 15.80 -999.00
14/08/2020 05:00:0017.00 16.70 16.80 0.00 7.90 13.40 0.00 96.30 1012.90 17.90 18.10 18.30 18.20 17.30 15.80 -999.00
14/08/2020 04:00:0017.30 16.70 17.00 0.00 7.10 14.20 0.00 95.70 1013.00 18.00 18.30 18.50 18.20 17.30 15.80 -999.00
14/08/2020 03:00:0017.30 17.20 17.30 0.00 8.60 14.60 0.00 95.50 1013.00 18.20 18.50 18.60 18.30 17.30 15.80 -999.00
14/08/2020 02:00:0017.60 17.20 17.40 0.00 7.10 12.50 0.00 94.90 1013.10 18.50 18.70 18.70 18.30 17.30 15.80 -999.00
14/08/2020 01:00:0018.00 17.60 17.80 0.00 7.40 11.90 0.00 94.40 1013.20 18.70 18.90 18.90 18.40 17.30 15.80 -999.00
14/08/2020 00:00:0018.20 17.90 18.10 0.00 6.70 10.60 0.00 93.40 1013.40 19.00 19.10 19.00 18.40 17.20 15.80 16.90
13/08/2020 23:00:0018.20 17.90 18.00 0.00 7.20 11.90 0.00 92.70 1013.40 19.20 19.40 19.10 18.40 17.20 15.80 -999.00
13/08/2020 22:00:0018.10 18.00 18.00 0.00 7.70 12.20 0.00 92.20 1013.40 19.40 19.60 19.20 18.40 17.20 15.80 -999.00